sensor_id;sensor_type;location;lat;lon;timestamp;P1;durP1;ratioP1;P2;durP2;ratioP2
19877;SDS011;10101;52.204;9.910;2022-12-24T00:01:43;10.83;;;6.10;;
19877;SDS011;10101;52.204;9.910;2022-12-24T00:04:10;8.43;;;6.00;;
19877;SDS011;10101;52.204;9.910;2022-12-24T00:06:36;8.50;;;5.70;;
19877;SDS011;10101;52.204;9.910;2022-12-24T00:09:04;9.17;;;6.10;;
19877;SDS011;10101;52.204;9.910;2022-12-24T00:11:31;8.80;;;5.87;;
19877;SDS011;10101;52.204;9.910;2022-12-24T00:13:58;13.57;;;6.60;;
19877;SDS011;10101;52.204;9.910;2022-12-24T00:16:24;10.63;;;6.73;;
19877;SDS011;10101;52.204;9.910;2022-12-24T00:18:51;9.07;;;6.17;;
19877;SDS011;10101;52.204;9.910;2022-12-24T00:21:18;11.43;;;6.70;;
19877;SDS011;10101;52.204;9.910;2022-12-24T00:23:45;10.50;;;6.80;;
19877;SDS011;10101;52.204;9.910;2022-12-24T00:26:13;10.73;;;6.47;;
19877;SDS011;10101;52.204;9.910;2022-12-24T00:28:40;9.13;;;5.70;;
19877;SDS011;10101;52.204;9.910;2022-12-24T00:31:07;12.13;;;6.97;;
19877;SDS011;10101;52.204;9.910;2022-12-24T00:33:36;8.63;;;6.13;;
19877;SDS011;10101;52.204;9.910;2022-12-24T00:36:03;9.47;;;6.10;;
19877;SDS011;10101;52.204;9.910;2022-12-24T00:38:30;8.80;;;6.10;;
19877;SDS011;10101;52.204;9.910;2022-12-24T00:40:57;9.83;;;6.40;;
19877;SDS011;10101;52.204;9.910;2022-12-24T00:43:27;9.33;;;6.23;;
19877;SDS011;10101;52.204;9.910;2022-12-24T00:45:54;10.83;;;5.70;;
19877;SDS011;10101;52.204;9.910;2022-12-24T00:48:23;9.33;;;5.60;;
19877;SDS011;10101;52.204;9.910;2022-12-24T00:50:49;8.93;;;6.20;;
19877;SDS011;10101;52.204;9.910;2022-12-24T00:53:17;9.33;;;6.40;;
19877;SDS011;10101;52.204;9.910;2022-12-24T00:55:44;7.93;;;5.87;;
19877;SDS011;10101;52.204;9.910;2022-12-24T00:58:10;8.37;;;5.63;;
19877;SDS011;10101;52.204;9.910;2022-12-24T01:00:38;8.17;;;5.67;;
19877;SDS011;10101;52.204;9.910;2022-12-24T01:03:05;8.03;;;5.57;;
19877;SDS011;10101;52.204;9.910;2022-12-24T01:05:32;9.10;;;6.37;;
19877;SDS011;10101;52.204;9.910;2022-12-24T01:07:59;7.93;;;5.50;;
19877;SDS011;10101;52.204;9.910;2022-12-24T01:10:25;9.03;;;6.03;;
19877;SDS011;10101;52.204;9.910;2022-12-24T01:12:52;9.20;;;5.57;;
19877;SDS011;10101;52.204;9.910;2022-12-24T01:15:19;8.50;;;5.87;;
19877;SDS011;10101;52.204;9.910;2022-12-24T01:17:47;7.87;;;5.40;;
19877;SDS011;10101;52.204;9.910;2022-12-24T01:20:14;6.63;;;5.00;;
19877;SDS011;10101;52.204;9.910;2022-12-24T01:22:42;8.33;;;5.27;;
19877;SDS011;10101;52.204;9.910;2022-12-24T01:25:09;7.53;;;5.03;;
19877;SDS011;10101;52.204;9.910;2022-12-24T01:27:36;7.67;;;5.27;;
19877;SDS011;10101;52.204;9.910;2022-12-24T01:30:03;11.37;;;6.90;;
19877;SDS011;10101;52.204;9.910;2022-12-24T01:32:31;9.87;;;6.67;;
19877;SDS011;10101;52.204;9.910;2022-12-24T01:34:59;7.47;;;5.43;;
19877;SDS011;10101;52.204;9.910;2022-12-24T01:37:25;8.97;;;5.63;;
19877;SDS011;10101;52.204;9.910;2022-12-24T01:39:52;8.07;;;5.70;;
19877;SDS011;10101;52.204;9.910;2022-12-24T01:42:40;8.03;;;5.10;;
19877;SDS011;10101;52.204;9.910;2022-12-24T01:48:16;9.60;;;6.43;;
19877;SDS011;10101;52.204;9.910;2022-12-24T01:50:49;8.40;;;5.77;;
19877;SDS011;10101;52.204;9.910;2022-12-24T01:53:21;7.03;;;5.17;;
19877;SDS011;10101;52.204;9.910;2022-12-24T01:55:48;7.00;;;4.77;;
19877;SDS011;10101;52.204;9.910;2022-12-24T01:58:16;7.97;;;5.60;;
19877;SDS011;10101;52.204;9.910;2022-12-24T02:00:44;8.93;;;5.40;;
19877;SDS011;10101;52.204;9.910;2022-12-24T02:03:11;6.40;;;4.50;;
19877;SDS011;10101;52.204;9.910;2022-12-24T02:05:41;7.90;;;4.80;;
19877;SDS011;10101;52.204;9.910;2022-12-24T02:08:14;6.67;;;3.83;;
19877;SDS011;10101;52.204;9.910;2022-12-24T02:10:42;5.63;;;4.13;;
19877;SDS011;10101;52.204;9.910;2022-12-24T02:13:08;10.03;;;4.97;;
19877;SDS011;10101;52.204;9.910;2022-12-24T02:15:40;7.03;;;4.23;;
19877;SDS011;10101;52.204;9.910;2022-12-24T02:18:17;9.97;;;4.57;;
19877;SDS011;10101;52.204;9.910;2022-12-24T02:20:57;7.23;;;2.80;;
19877;SDS011;10101;52.204;9.910;2022-12-24T02:23:56;4.50;;;2.20;;
19877;SDS011;10101;52.204;9.910;2022-12-24T02:26:46;3.87;;;2.30;;
19877;SDS011;10101;52.204;9.910;2022-12-24T02:32:34;3.83;;;1.70;;
19877;SDS011;10101;52.204;9.910;2022-12-24T02:35:08;4.57;;;1.60;;
19877;SDS011;10101;52.204;9.910;2022-12-24T02:37:38;5.53;;;2.27;;
19877;SDS011;10101;52.204;9.910;2022-12-24T02:40:09;5.60;;;1.80;;
19877;SDS011;10101;52.204;9.910;2022-12-24T02:42:41;5.27;;;1.73;;
19877;SDS011;10101;52.204;9.910;2022-12-24T02:45:11;4.83;;;1.53;;
19877;SDS011;10101;52.204;9.910;2022-12-24T02:47:42;4.60;;;1.60;;
19877;SDS011;10101;52.204;9.910;2022-12-24T02:50:13;3.47;;;1.20;;
19877;SDS011;10101;52.204;9.910;2022-12-24T02:52:41;6.17;;;1.67;;
19877;SDS011;10101;52.204;9.910;2022-12-24T02:55:10;3.73;;;1.40;;
19877;SDS011;10101;52.204;9.910;2022-12-24T02:57:43;7.10;;;1.50;;
19877;SDS011;10101;52.204;9.910;2022-12-24T03:00:25;5.33;;;1.53;;
19877;SDS011;10101;52.204;9.910;2022-12-24T03:03:04;5.03;;;1.57;;
19877;SDS011;10101;52.204;9.910;2022-12-24T03:05:41;3.20;;;1.40;;
19877;SDS011;10101;52.204;9.910;2022-12-24T03:08:12;7.97;;;2.33;;
19877;SDS011;10101;52.204;9.910;2022-12-24T03:10:44;2.70;;;1.37;;
19877;SDS011;10101;52.204;9.910;2022-12-24T03:13:17;5.57;;;1.90;;
19877;SDS011;10101;52.204;9.910;2022-12-24T03:15:46;6.97;;;1.67;;
19877;SDS011;10101;52.204;9.910;2022-12-24T03:18:16;4.90;;;1.37;;
19877;SDS011;10101;52.204;9.910;2022-12-24T03:20:45;4.53;;;1.20;;
19877;SDS011;10101;52.204;9.910;2022-12-24T03:23:15;5.20;;;1.17;;
19877;SDS011;10101;52.204;9.910;2022-12-24T03:25:42;4.43;;;1.20;;
19877;SDS011;10101;52.204;9.910;2022-12-24T03:28:10;5.23;;;1.77;;
19877;SDS011;10101;52.204;9.910;2022-12-24T03:30:39;5.60;;;1.43;;
19877;SDS011;10101;52.204;9.910;2022-12-24T03:33:07;6.70;;;1.30;;
19877;SDS011;10101;52.204;9.910;2022-12-24T03:35:36;7.47;;;1.90;;
19877;SDS011;10101;52.204;9.910;2022-12-24T03:38:03;4.90;;;1.47;;
19877;SDS011;10101;52.204;9.910;2022-12-24T03:40:30;6.30;;;1.83;;
19877;SDS011;10101;52.204;9.910;2022-12-24T03:42:56;5.70;;;1.77;;
19877;SDS011;10101;52.204;9.910;2022-12-24T03:45:23;4.40;;;1.40;;
19877;SDS011;10101;52.204;9.910;2022-12-24T03:47:50;7.97;;;1.50;;
19877;SDS011;10101;52.204;9.910;2022-12-24T03:50:17;6.13;;;1.80;;
19877;SDS011;10101;52.204;9.910;2022-12-24T03:52:45;8.83;;;2.03;;
19877;SDS011;10101;52.204;9.910;2022-12-24T03:55:11;9.53;;;2.00;;
19877;SDS011;10101;52.204;9.910;2022-12-24T03:57:38;5.00;;;1.60;;
19877;SDS011;10101;52.204;9.910;2022-12-24T04:00:05;7.77;;;1.70;;
19877;SDS011;10101;52.204;9.910;2022-12-24T04:02:33;9.07;;;1.67;;
19877;SDS011;10101;52.204;9.910;2022-12-24T04:05:00;5.70;;;2.07;;
19877;SDS011;10101;52.204;9.910;2022-12-24T04:07:27;11.40;;;2.10;;
19877;SDS011;10101;52.204;9.910;2022-12-24T04:09:55;8.63;;;1.90;;
19877;SDS011;10101;52.204;9.910;2022-12-24T04:12:22;15.07;;;1.70;;
19877;SDS011;10101;52.204;9.910;2022-12-24T04:14:48;8.10;;;2.17;;
19877;SDS011;10101;52.204;9.910;2022-12-24T04:17:16;11.23;;;1.67;;
19877;SDS011;10101;52.204;9.910;2022-12-24T04:19:43;10.03;;;2.10;;
19877;SDS011;10101;52.204;9.910;2022-12-24T04:22:09;9.57;;;2.00;;
19877;SDS011;10101;52.204;9.910;2022-12-24T04:24:36;11.63;;;1.73;;
19877;SDS011;10101;52.204;9.910;2022-12-24T04:27:04;13.37;;;2.97;;
19877;SDS011;10101;52.204;9.910;2022-12-24T04:29:31;6.47;;;1.67;;
19877;SDS011;10101;52.204;9.910;2022-12-24T04:31:58;7.67;;;2.30;;
19877;SDS011;10101;52.204;9.910;2022-12-24T04:34:25;8.87;;;2.40;;
19877;SDS011;10101;52.204;9.910;2022-12-24T04:36:52;8.20;;;1.73;;
19877;SDS011;10101;52.204;9.910;2022-12-24T04:39:19;10.33;;;2.70;;
19877;SDS011;10101;52.204;9.910;2022-12-24T04:41:45;6.87;;;1.70;;
19877;SDS011;10101;52.204;9.910;2022-12-24T04:44:13;8.57;;;1.90;;
19877;SDS011;10101;52.204;9.910;2022-12-24T04:46:40;7.70;;;1.80;;
19877;SDS011;10101;52.204;9.910;2022-12-24T04:49:07;13.13;;;2.40;;
19877;SDS011;10101;52.204;9.910;2022-12-24T04:51:34;11.83;;;2.50;;
19877;SDS011;10101;52.204;9.910;2022-12-24T04:54:01;10.13;;;2.23;;
19877;SDS011;10101;52.204;9.910;2022-12-24T04:56:29;7.47;;;2.47;;
19877;SDS011;10101;52.204;9.910;2022-12-24T04:58:57;12.53;;;2.47;;
19877;SDS011;10101;52.204;9.910;2022-12-24T05:01:27;13.53;;;2.40;;
19877;SDS011;10101;52.204;9.910;2022-12-24T05:03:56;4.60;;;2.00;;
19877;SDS011;10101;52.204;9.910;2022-12-24T05:06:24;8.07;;;2.37;;
19877;SDS011;10101;52.204;9.910;2022-12-24T05:08:54;13.63;;;3.27;;
19877;SDS011;10101;52.204;9.910;2022-12-24T05:11:21;11.17;;;2.80;;
19877;SDS011;10101;52.204;9.910;2022-12-24T05:13:48;7.03;;;2.47;;
19877;SDS011;10101;52.204;9.910;2022-12-24T05:16:15;10.80;;;2.97;;
19877;SDS011;10101;52.204;9.910;2022-12-24T05:18:45;7.97;;;2.10;;
19877;SDS011;10101;52.204;9.910;2022-12-24T05:21:12;9.00;;;2.43;;
19877;SDS011;10101;52.204;9.910;2022-12-24T05:23:41;7.87;;;1.70;;
19877;SDS011;10101;52.204;9.910;2022-12-24T05:26:26;10.63;;;2.00;;
19877;SDS011;10101;52.204;9.910;2022-12-24T05:28:55;6.93;;;1.57;;
19877;SDS011;10101;52.204;9.910;2022-12-24T05:31:24;9.17;;;1.53;;
19877;SDS011;10101;52.204;9.910;2022-12-24T05:33:54;6.03;;;1.97;;
19877;SDS011;10101;52.204;9.910;2022-12-24T05:36:21;3.23;;;1.40;;
19877;SDS011;10101;52.204;9.910;2022-12-24T05:38:49;5.37;;;2.13;;
19877;SDS011;10101;52.204;9.910;2022-12-24T05:41:16;9.77;;;2.10;;
19877;SDS011;10101;52.204;9.910;2022-12-24T05:43:43;13.73;;;2.60;;
19877;SDS011;10101;52.204;9.910;2022-12-24T05:46:10;10.00;;;2.30;;
19877;SDS011;10101;52.204;9.910;2022-12-24T05:48:39;13.60;;;2.50;;
19877;SDS011;10101;52.204;9.910;2022-12-24T05:51:08;9.77;;;2.67;;
19877;SDS011;10101;52.204;9.910;2022-12-24T05:53:38;12.67;;;3.07;;
19877;SDS011;10101;52.204;9.910;2022-12-24T05:56:06;15.43;;;3.50;;
19877;SDS011;10101;52.204;9.910;2022-12-24T05:58:34;10.70;;;2.80;;
19877;SDS011;10101;52.204;9.910;2022-12-24T06:01:02;12.17;;;2.83;;
19877;SDS011;10101;52.204;9.910;2022-12-24T06:03:29;12.13;;;3.50;;
19877;SDS011;10101;52.204;9.910;2022-12-24T06:05:58;15.60;;;3.83;;
19877;SDS011;10101;52.204;9.910;2022-12-24T06:08:27;19.30;;;4.00;;
19877;SDS011;10101;52.204;9.910;2022-12-24T06:10:54;14.43;;;3.60;;
19877;SDS011;10101;52.204;9.910;2022-12-24T06:13:22;16.37;;;3.60;;
19877;SDS011;10101;52.204;9.910;2022-12-24T06:15:49;16.03;;;4.70;;
19877;SDS011;10101;52.204;9.910;2022-12-24T06:18:16;13.30;;;3.07;;
19877;SDS011;10101;52.204;9.910;2022-12-24T06:20:42;15.80;;;3.97;;
19877;SDS011;10101;52.204;9.910;2022-12-24T06:23:09;20.80;;;4.23;;
19877;SDS011;10101;52.204;9.910;2022-12-24T06:25:37;20.73;;;3.87;;
19877;SDS011;10101;52.204;9.910;2022-12-24T06:28:04;17.57;;;3.87;;
19877;SDS011;10101;52.204;9.910;2022-12-24T06:30:30;14.23;;;4.20;;
19877;SDS011;10101;52.204;9.910;2022-12-24T06:32:57;16.50;;;4.03;;
19877;SDS011;10101;52.204;9.910;2022-12-24T06:35:24;13.57;;;3.47;;
19877;SDS011;10101;52.204;9.910;2022-12-24T06:37:51;12.30;;;3.40;;
19877;SDS011;10101;52.204;9.910;2022-12-24T06:40:18;24.47;;;4.00;;
19877;SDS011;10101;52.204;9.910;2022-12-24T06:42:46;16.03;;;3.67;;
19877;SDS011;10101;52.204;9.910;2022-12-24T06:45:13;10.80;;;3.93;;
19877;SDS011;10101;52.204;9.910;2022-12-24T06:47:39;17.70;;;3.13;;
19877;SDS011;10101;52.204;9.910;2022-12-24T06:50:06;15.53;;;3.17;;
19877;SDS011;10101;52.204;9.910;2022-12-24T06:52:34;15.13;;;3.50;;
19877;SDS011;10101;52.204;9.910;2022-12-24T06:55:01;19.10;;;3.63;;
19877;SDS011;10101;52.204;9.910;2022-12-24T06:57:28;17.67;;;3.30;;
19877;SDS011;10101;52.204;9.910;2022-12-24T06:59:57;21.63;;;4.10;;
19877;SDS011;10101;52.204;9.910;2022-12-24T07:02:24;18.57;;;3.53;;
19877;SDS011;10101;52.204;9.910;2022-12-24T07:04:51;19.80;;;3.47;;
19877;SDS011;10101;52.204;9.910;2022-12-24T07:07:17;16.00;;;3.90;;
19877;SDS011;10101;52.204;9.910;2022-12-24T07:09:44;12.03;;;3.10;;
19877;SDS011;10101;52.204;9.910;2022-12-24T07:12:11;12.43;;;3.00;;
19877;SDS011;10101;52.204;9.910;2022-12-24T07:14:38;18.30;;;3.83;;
19877;SDS011;10101;52.204;9.910;2022-12-24T07:17:06;13.77;;;3.97;;
19877;SDS011;10101;52.204;9.910;2022-12-24T07:19:32;16.73;;;3.57;;
19877;SDS011;10101;52.204;9.910;2022-12-24T07:21:59;15.30;;;4.17;;
19877;SDS011;10101;52.204;9.910;2022-12-24T07:24:26;18.73;;;3.77;;
19877;SDS011;10101;52.204;9.910;2022-12-24T07:26:53;15.67;;;3.30;;
19877;SDS011;10101;52.204;9.910;2022-12-24T07:29:19;18.50;;;4.00;;
19877;SDS011;10101;52.204;9.910;2022-12-24T07:31:46;18.87;;;4.43;;
19877;SDS011;10101;52.204;9.910;2022-12-24T07:34:14;12.63;;;3.70;;
19877;SDS011;10101;52.204;9.910;2022-12-24T07:36:41;22.87;;;3.73;;
19877;SDS011;10101;52.204;9.910;2022-12-24T07:39:08;16.20;;;3.47;;
19877;SDS011;10101;52.204;9.910;2022-12-24T07:41:35;20.37;;;4.50;;
19877;SDS011;10101;52.204;9.910;2022-12-24T07:44:01;22.00;;;3.90;;
19877;SDS011;10101;52.204;9.910;2022-12-24T07:46:28;12.57;;;3.40;;
19877;SDS011;10101;52.204;9.910;2022-12-24T07:48:55;14.47;;;3.60;;
19877;SDS011;10101;52.204;9.910;2022-12-24T07:51:23;16.00;;;3.50;;
19877;SDS011;10101;52.204;9.910;2022-12-24T07:53:50;15.97;;;3.77;;
19877;SDS011;10101;52.204;9.910;2022-12-24T07:56:17;22.50;;;4.30;;
19877;SDS011;10101;52.204;9.910;2022-12-24T07:58:44;13.83;;;3.57;;
19877;SDS011;10101;52.204;9.910;2022-12-24T08:01:11;18.27;;;3.87;;
19877;SDS011;10101;52.204;9.910;2022-12-24T08:03:38;13.73;;;3.37;;
19877;SDS011;10101;52.204;9.910;2022-12-24T08:06:05;11.27;;;3.40;;
19877;SDS011;10101;52.204;9.910;2022-12-24T08:08:33;15.83;;;3.90;;
19877;SDS011;10101;52.204;9.910;2022-12-24T08:11:01;15.80;;;3.97;;
19877;SDS011;10101;52.204;9.910;2022-12-24T08:13:30;18.50;;;4.27;;
19877;SDS011;10101;52.204;9.910;2022-12-24T08:15:57;16.87;;;4.03;;
19877;SDS011;10101;52.204;9.910;2022-12-24T08:18:24;24.10;;;5.13;;
19877;SDS011;10101;52.204;9.910;2022-12-24T08:20:51;19.03;;;4.43;;
19877;SDS011;10101;52.204;9.910;2022-12-24T08:23:18;22.97;;;4.80;;
19877;SDS011;10101;52.204;9.910;2022-12-24T08:25:46;20.63;;;4.97;;
19877;SDS011;10101;52.204;9.910;2022-12-24T08:28:15;19.77;;;3.97;;
19877;SDS011;10101;52.204;9.910;2022-12-24T08:30:43;19.70;;;3.60;;
19877;SDS011;10101;52.204;9.910;2022-12-24T08:33:10;14.47;;;3.40;;
19877;SDS011;10101;52.204;9.910;2022-12-24T08:35:37;16.50;;;3.33;;
19877;SDS011;10101;52.204;9.910;2022-12-24T08:38:04;19.53;;;4.50;;
19877;SDS011;10101;52.204;9.910;2022-12-24T08:40:30;19.00;;;4.37;;
19877;SDS011;10101;52.204;9.910;2022-12-24T08:42:59;20.00;;;4.00;;
19877;SDS011;10101;52.204;9.910;2022-12-24T08:45:26;10.20;;;4.03;;
19877;SDS011;10101;52.204;9.910;2022-12-24T08:47:53;16.67;;;3.70;;
19877;SDS011;10101;52.204;9.910;2022-12-24T08:50:20;17.77;;;4.23;;
19877;SDS011;10101;52.204;9.910;2022-12-24T08:52:46;17.13;;;4.07;;
19877;SDS011;10101;52.204;9.910;2022-12-24T08:55:13;24.17;;;4.57;;
19877;SDS011;10101;52.204;9.910;2022-12-24T08:57:40;20.63;;;4.00;;
19877;SDS011;10101;52.204;9.910;2022-12-24T09:00:10;19.90;;;4.40;;
19877;SDS011;10101;52.204;9.910;2022-12-24T09:02:37;19.73;;;4.53;;
19877;SDS011;10101;52.204;9.910;2022-12-24T09:05:04;20.43;;;4.73;;
19877;SDS011;10101;52.204;9.910;2022-12-24T09:07:32;22.97;;;5.00;;
19877;SDS011;10101;52.204;9.910;2022-12-24T09:09:58;15.97;;;4.77;;
19877;SDS011;10101;52.204;9.910;2022-12-24T09:12:25;23.53;;;6.43;;
19877;SDS011;10101;52.204;9.910;2022-12-24T09:14:52;20.17;;;5.73;;
19877;SDS011;10101;52.204;9.910;2022-12-24T09:17:20;17.93;;;5.70;;
19877;SDS011;10101;52.204;9.910;2022-12-24T09:19:47;21.23;;;6.30;;
19877;SDS011;10101;52.204;9.910;2022-12-24T09:22:13;17.80;;;4.90;;
19877;SDS011;10101;52.204;9.910;2022-12-24T09:24:40;21.10;;;5.17;;
19877;SDS011;10101;52.204;9.910;2022-12-24T09:27:07;19.97;;;5.70;;
19877;SDS011;10101;52.204;9.910;2022-12-24T09:29:34;26.23;;;5.70;;
19877;SDS011;10101;52.204;9.910;2022-12-24T09:32:00;20.47;;;5.67;;
19877;SDS011;10101;52.204;9.910;2022-12-24T09:34:28;15.20;;;5.07;;
19877;SDS011;10101;52.204;9.910;2022-12-24T09:36:55;16.20;;;4.60;;
19877;SDS011;10101;52.204;9.910;2022-12-24T09:39:22;17.03;;;4.70;;
19877;SDS011;10101;52.204;9.910;2022-12-24T09:41:50;14.57;;;4.63;;
19877;SDS011;10101;52.204;9.910;2022-12-24T09:44:30;14.70;;;4.27;;
19877;SDS011;10101;52.204;9.910;2022-12-24T09:47:02;11.17;;;4.50;;
19877;SDS011;10101;52.204;9.910;2022-12-24T09:49:39;9.97;;;3.83;;
19877;SDS011;10101;52.204;9.910;2022-12-24T09:52:11;8.80;;;3.33;;
19877;SDS011;10101;52.204;9.910;2022-12-24T09:54:43;10.57;;;4.17;;
19877;SDS011;10101;52.204;9.910;2022-12-24T09:57:16;10.07;;;3.53;;
19877;SDS011;10101;52.204;9.910;2022-12-24T09:59:50;10.17;;;3.60;;
19877;SDS011;10101;52.204;9.910;2022-12-24T10:02:18;14.00;;;4.00;;
19877;SDS011;10101;52.204;9.910;2022-12-24T10:04:47;11.90;;;3.80;;
19877;SDS011;10101;52.204;9.910;2022-12-24T10:07:17;11.93;;;4.20;;
19877;SDS011;10101;52.204;9.910;2022-12-24T10:09:55;14.87;;;4.70;;
19877;SDS011;10101;52.204;9.910;2022-12-24T10:12:29;14.87;;;4.63;;
19877;SDS011;10101;52.204;9.910;2022-12-24T10:15:02;11.77;;;5.10;;
19877;SDS011;10101;52.204;9.910;2022-12-24T10:17:39;15.47;;;5.83;;
19877;SDS011;10101;52.204;9.910;2022-12-24T10:20:24;20.63;;;7.00;;
19877;SDS011;10101;52.204;9.910;2022-12-24T10:23:05;22.83;;;6.83;;
19877;SDS011;10101;52.204;9.910;2022-12-24T10:25:40;15.07;;;6.67;;
19877;SDS011;10101;52.204;9.910;2022-12-24T10:28:13;14.37;;;6.23;;
19877;SDS011;10101;52.204;9.910;2022-12-24T10:30:41;11.50;;;4.80;;
19877;SDS011;10101;52.204;9.910;2022-12-24T10:33:13;10.77;;;5.00;;
19877;SDS011;10101;52.204;9.910;2022-12-24T10:35:46;8.57;;;5.47;;
19877;SDS011;10101;52.204;9.910;2022-12-24T10:38:18;14.90;;;5.63;;
19877;SDS011;10101;52.204;9.910;2022-12-24T10:40:46;13.60;;;5.07;;
19877;SDS011;10101;52.204;9.910;2022-12-24T10:43:15;11.57;;;4.90;;
19877;SDS011;10101;52.204;9.910;2022-12-24T10:45:45;9.93;;;4.53;;
19877;SDS011;10101;52.204;9.910;2022-12-24T10:48:16;10.73;;;4.83;;
19877;SDS011;10101;52.204;9.910;2022-12-24T10:50:53;13.87;;;5.40;;
19877;SDS011;10101;52.204;9.910;2022-12-24T10:53:27;12.13;;;4.80;;
19877;SDS011;10101;52.204;9.910;2022-12-24T10:56:02;10.03;;;4.17;;
19877;SDS011;10101;52.204;9.910;2022-12-24T10:58:31;12.80;;;4.50;;
19877;SDS011;10101;52.204;9.910;2022-12-24T11:00:59;12.57;;;5.27;;
19877;SDS011;10101;52.204;9.910;2022-12-24T11:03:30;11.23;;;4.60;;
19877;SDS011;10101;52.204;9.910;2022-12-24T11:06:00;10.03;;;5.00;;
19877;SDS011;10101;52.204;9.910;2022-12-24T11:08:30;9.50;;;4.23;;
19877;SDS011;10101;52.204;9.910;2022-12-24T11:10:59;9.70;;;3.93;;
19877;SDS011;10101;52.204;9.910;2022-12-24T11:13:27;6.47;;;3.80;;
19877;SDS011;10101;52.204;9.910;2022-12-24T11:15:59;6.87;;;3.87;;
19877;SDS011;10101;52.204;9.910;2022-12-24T11:18:30;7.87;;;3.87;;
19877;SDS011;10101;52.204;9.910;2022-12-24T11:20:59;8.10;;;4.40;;
19877;SDS011;10101;52.204;9.910;2022-12-24T11:23:26;6.47;;;3.83;;
19877;SDS011;10101;52.204;9.910;2022-12-24T11:25:54;7.37;;;3.37;;
19877;SDS011;10101;52.204;9.910;2022-12-24T11:28:23;10.37;;;3.70;;
19877;SDS011;10101;52.204;9.910;2022-12-24T11:30:56;10.70;;;3.47;;
19877;SDS011;10101;52.204;9.910;2022-12-24T11:33:25;6.50;;;3.80;;
19877;SDS011;10101;52.204;9.910;2022-12-24T11:35:54;8.47;;;2.83;;
19877;SDS011;10101;52.204;9.910;2022-12-24T11:38:29;6.63;;;3.20;;
19877;SDS011;10101;52.204;9.910;2022-12-24T11:40:58;7.97;;;3.90;;
19877;SDS011;10101;52.204;9.910;2022-12-24T11:43:27;5.93;;;3.23;;
19877;SDS011;10101;52.204;9.910;2022-12-24T11:46:16;10.30;;;3.10;;
19877;SDS011;10101;52.204;9.910;2022-12-24T11:48:45;10.93;;;3.20;;
19877;SDS011;10101;52.204;9.910;2022-12-24T11:51:19;6.43;;;2.20;;
19877;SDS011;10101;52.204;9.910;2022-12-24T11:53:55;3.73;;;1.80;;
19877;SDS011;10101;52.204;9.910;2022-12-24T11:56:29;7.53;;;1.60;;
19877;SDS011;10101;52.204;9.910;2022-12-24T11:59:02;2.77;;;1.27;;
19877;SDS011;10101;52.204;9.910;2022-12-24T12:01:36;2.63;;;1.10;;
19877;SDS011;10101;52.204;9.910;2022-12-24T12:04:12;2.70;;;1.27;;
19877;SDS011;10101;52.204;9.910;2022-12-24T12:06:43;4.17;;;1.23;;
19877;SDS011;10101;52.204;9.910;2022-12-24T12:09:15;1.43;;;0.87;;
19877;SDS011;10101;52.204;9.910;2022-12-24T12:11:45;2.30;;;1.03;;
19877;SDS011;10101;52.204;9.910;2022-12-24T12:14:18;4.63;;;1.23;;
19877;SDS011;10101;52.204;9.910;2022-12-24T12:16:48;1.70;;;1.07;;
19877;SDS011;10101;52.204;9.910;2022-12-24T12:19:28;2.20;;;1.10;;
19877;SDS011;10101;52.204;9.910;2022-12-24T12:22:00;2.77;;;1.00;;
19877;SDS011;10101;52.204;9.910;2022-12-24T12:24:33;6.50;;;1.10;;
19877;SDS011;10101;52.204;9.910;2022-12-24T12:27:06;5.47;;;1.30;;
19877;SDS011;10101;52.204;9.910;2022-12-24T12:29:42;2.53;;;1.40;;
19877;SDS011;10101;52.204;9.910;2022-12-24T12:32:15;3.03;;;1.20;;
19877;SDS011;10101;52.204;9.910;2022-12-24T12:34:53;2.67;;;1.00;;
19877;SDS011;10101;52.204;9.910;2022-12-24T12:37:27;3.50;;;1.40;;
19877;SDS011;10101;52.204;9.910;2022-12-24T12:39:59;2.83;;;1.20;;
19877;SDS011;10101;52.204;9.910;2022-12-24T12:42:26;4.00;;;1.83;;
19877;SDS011;10101;52.204;9.910;2022-12-24T12:47:50;4.97;;;1.53;;
19877;SDS011;10101;52.204;9.910;2022-12-24T12:50:28;3.50;;;2.00;;
19877;SDS011;10101;52.204;9.910;2022-12-24T12:53:02;4.90;;;1.50;;
19877;SDS011;10101;52.204;9.910;2022-12-24T12:55:44;3.70;;;1.37;;
19877;SDS011;10101;52.204;9.910;2022-12-24T12:58:16;2.93;;;1.93;;
19877;SDS011;10101;52.204;9.910;2022-12-24T13:00:50;6.77;;;2.00;;
19877;SDS011;10101;52.204;9.910;2022-12-24T13:03:31;2.97;;;1.80;;
19877;SDS011;10101;52.204;9.910;2022-12-24T13:06:36;12.20;;;3.07;;
19877;SDS011;10101;52.204;9.910;2022-12-24T13:12:16;11.40;;;5.00;;
19877;SDS011;10101;52.204;9.910;2022-12-24T13:15:10;13.67;;;5.70;;
19877;SDS011;10101;52.204;9.910;2022-12-24T13:18:04;13.40;;;5.87;;
19877;SDS011;10101;52.204;9.910;2022-12-24T13:21:00;18.93;;;6.40;;
19877;SDS011;10101;52.204;9.910;2022-12-24T13:23:27;17.17;;;5.50;;
19877;SDS011;10101;52.204;9.910;2022-12-24T13:25:55;19.13;;;5.40;;
19877;SDS011;10101;52.204;9.910;2022-12-24T13:28:34;10.20;;;4.23;;
19877;SDS011;10101;52.204;9.910;2022-12-24T13:31:24;15.17;;;5.40;;
19877;SDS011;10101;52.204;9.910;2022-12-24T13:33:55;25.93;;;5.57;;
19877;SDS011;10101;52.204;9.910;2022-12-24T13:36:24;15.80;;;4.80;;
19877;SDS011;10101;52.204;9.910;2022-12-24T13:39:15;15.77;;;4.70;;
19877;SDS011;10101;52.204;9.910;2022-12-24T13:41:48;14.73;;;4.50;;
19877;SDS011;10101;52.204;9.910;2022-12-24T13:44:21;14.23;;;4.67;;
19877;SDS011;10101;52.204;9.910;2022-12-24T13:46:53;16.77;;;4.47;;
19877;SDS011;10101;52.204;9.910;2022-12-24T13:49:26;16.63;;;4.83;;
19877;SDS011;10101;52.204;9.910;2022-12-24T13:55:10;18.30;;;4.40;;
19877;SDS011;10101;52.204;9.910;2022-12-24T13:57:40;9.83;;;3.80;;
19877;SDS011;10101;52.204;9.910;2022-12-24T14:00:32;11.13;;;4.20;;
19877;SDS011;10101;52.204;9.910;2022-12-24T14:03:16;16.33;;;4.90;;
19877;SDS011;10101;52.204;9.910;2022-12-24T14:05:49;15.47;;;3.90;;
19877;SDS011;10101;52.204;9.910;2022-12-24T14:08:24;9.30;;;3.70;;
19877;SDS011;10101;52.204;9.910;2022-12-24T14:10:57;15.13;;;3.87;;
19877;SDS011;10101;52.204;9.910;2022-12-24T14:16:20;14.17;;;3.87;;
19877;SDS011;10101;52.204;9.910;2022-12-24T14:18:49;11.10;;;3.83;;
19877;SDS011;10101;52.204;9.910;2022-12-24T14:21:24;14.53;;;4.17;;
19877;SDS011;10101;52.204;9.910;2022-12-24T14:23:54;15.33;;;3.73;;
19877;SDS011;10101;52.204;9.910;2022-12-24T14:26:23;16.17;;;3.97;;
19877;SDS011;10101;52.204;9.910;2022-12-24T14:28:56;13.33;;;3.50;;
19877;SDS011;10101;52.204;9.910;2022-12-24T14:31:26;13.47;;;4.60;;
19877;SDS011;10101;52.204;9.910;2022-12-24T14:34:04;13.97;;;4.63;;
19877;SDS011;10101;52.204;9.910;2022-12-24T14:36:31;12.63;;;4.00;;
19877;SDS011;10101;52.204;9.910;2022-12-24T14:38:59;13.83;;;4.50;;
19877;SDS011;10101;52.204;9.910;2022-12-24T14:41:32;13.33;;;4.27;;
19877;SDS011;10101;52.204;9.910;2022-12-24T14:44:09;12.70;;;4.50;;
19877;SDS011;10101;52.204;9.910;2022-12-24T14:46:49;12.97;;;4.50;;
19877;SDS011;10101;52.204;9.910;2022-12-24T14:49:24;15.03;;;4.87;;
19877;SDS011;10101;52.204;9.910;2022-12-24T14:52:02;19.67;;;5.07;;
19877;SDS011;10101;52.204;9.910;2022-12-24T14:54:36;16.17;;;4.90;;
19877;SDS011;10101;52.204;9.910;2022-12-24T14:57:17;15.47;;;4.67;;
19877;SDS011;10101;52.204;9.910;2022-12-24T14:59:46;16.63;;;5.37;;
19877;SDS011;10101;52.204;9.910;2022-12-24T15:02:23;17.93;;;5.07;;
19877;SDS011;10101;52.204;9.910;2022-12-24T15:05:06;13.67;;;4.60;;
19877;SDS011;10101;52.204;9.910;2022-12-24T15:07:37;18.73;;;4.30;;
19877;SDS011;10101;52.204;9.910;2022-12-24T15:10:14;14.13;;;4.63;;
19877;SDS011;10101;52.204;9.910;2022-12-24T15:12:49;12.00;;;3.70;;
19877;SDS011;10101;52.204;9.910;2022-12-24T15:15:17;18.70;;;4.30;;
19877;SDS011;10101;52.204;9.910;2022-12-24T15:17:46;10.90;;;3.90;;